Main page
METAR-TAF:

METAR-TAF

Airports :

Reykjavík Airport

Reykjavík, Iceland

latitude: 64-08N, longitude: 021-54W, elevation: 54 m

Current weather observation

The report was made 35 minutes ago, at 20:00 UTC
Wind 32 kt from the Northeast
Temperature 4°C
Humidity 65%
Pressure 1022 hPa
Visibility 10 km or more
Scattered clouds at a height of 2600 ft
Broken clouds at a height of 4000 ft

METAR: BIRK 092000Z 04032KT 9999 SCT026 BKN040 04/M02 Q1022

Time: 20:35 (20:35 UTC)

Forecast

The report was made 1 hour and 16 minutes ago, at 19:19 UTC
Forecast valid from 09 at 21 UTC to 10 at 21 UTC
Wind 3 kt from the East
Visibility 10 km or more
Scattered clouds at a height of 3000 ft
Broken clouds at a height of 5000 ft
Becoming
from 10 at 08 UTC to 10 at 10 UTC
Wind 13 kt from the East
Scattered clouds at a height of 1400 ft
Broken clouds at a height of 2200 ft
Overcast at a height of 4000 ft
light rain

TAF: BIRK 091919Z 0921/1021 09003KT 9999 SCT030 BKN050 TX04/0921Z TN00/1003Z BECMG 1008/1010 08013KT -RA SCT014 BKN022 OVC040

Weather observations and forecasts of more than 4000 airports (METAR and TAF reports).

The available stations are represented by yellow and red dots on the map.

Hover mouse over dot to see the name of the station.

Then click to see weather observations and forecasts.

To change the map : click on the green buttons with a black cross to zoom in, on the green button with a dash to zoom out, or on the green arrows for adjacent maps.


METAR-TAF: